Castle Valley, Utah
Current Conditions -  °F | °C
As of 7:14 AM on Thursday 18 Dec 2014 (Local Time) from KCNY Reporting Station
Overcast Overcast  
Wind Chill:   Ceiling: 1100
Heat Index:   Visibility: 10mi
Dew Point:   Wind: 3mph
Humidity: 96%   Direction: 340°NNW
Pressure: 30.11"   Gusts: NA
Location:  38.6903°N, 109.256°W
Report Text: KCNY 181414Z AUTO 34003KT 10SM OVC011 01/01 A3011 RMK AO2 T00110006
Loading
Personal Weather Stations






























Interactive Weather Map New forecast layout! Learn more

10-Day Weather Forecast

Advertisements
Track Severe Weather on mobile